createdAt,value
2023-02-05T00:01:42.516Z,18.5
2023-02-05T00:04:09.189Z,20
2023-02-05T00:06:35.872Z,12
2023-02-05T00:09:02.551Z,12.8
2023-02-05T00:11:29.258Z,12.7
2023-02-05T00:13:55.923Z,13.8
2023-02-05T00:16:22.609Z,15.8
2023-02-05T00:18:49.297Z,17.2
2023-02-05T00:21:15.976Z,16.9
2023-02-05T00:23:42.669Z,16.4
2023-02-05T00:26:09.341Z,17.1
2023-02-05T00:28:34.567Z,12.5
2023-02-05T00:31:01.245Z,17
2023-02-05T00:33:27.980Z,15.9
2023-02-05T00:35:54.615Z,16.8
2023-02-05T00:38:21.346Z,16.6
2023-02-05T00:40:48.001Z,15.1
2023-02-05T00:43:14.682Z,16.2
2023-02-05T00:45:41.400Z,19.1
2023-02-05T00:48:08.070Z,16
2023-02-05T00:50:34.747Z,15.7
2023-02-05T00:55:28.774Z,16.9
2023-02-05T00:57:54.793Z,15.1
2023-02-05T01:00:21.475Z,13.1
2023-02-05T01:02:46.703Z,16.2
2023-02-05T01:05:13.394Z,17.8
2023-02-05T01:07:40.068Z,15.8
2023-02-05T01:10:06.753Z,14.6
2023-02-05T01:12:33.472Z,14.1
2023-02-05T01:15:00.127Z,18.6
2023-02-05T01:17:26.811Z,15.6
2023-02-05T01:19:54.385Z,15.2
2023-02-05T01:22:20.170Z,13.7
2023-02-05T01:24:46.847Z,14.5
2023-02-05T01:27:13.561Z,17.1
2023-02-05T01:29:40.233Z,16
2023-02-05T01:32:06.996Z,15.7
2023-02-05T01:34:33.606Z,17.4
2023-02-05T01:37:00.284Z,14.5
2023-02-05T01:39:27.196Z,16
2023-02-05T01:44:20.340Z,17.3
2023-02-05T01:46:45.595Z,17.1
2023-02-05T01:49:12.242Z,14
2023-02-05T01:51:38.923Z,15.3
2023-02-05T01:54:05.615Z,16.4
2023-02-05T01:56:32.287Z,15.5
2023-02-05T01:58:58.975Z,15.4
2023-02-05T02:01:25.669Z,15
2023-02-05T02:03:52.369Z,16
2023-02-05T02:06:19.038Z,14.5
2023-02-05T02:08:45.722Z,12.8
2023-02-05T02:11:12.419Z,15
2023-02-05T02:13:39.110Z,14.6
2023-02-05T02:16:05.778Z,15.2
2023-02-05T02:18:31.008Z,11.3
2023-02-05T02:20:57.696Z,14.2
2023-02-05T02:23:24.378Z,12.8
2023-02-05T02:25:51.082Z,14.1
2023-02-05T02:28:17.749Z,13.5
2023-02-05T02:30:44.448Z,13.8
2023-02-05T02:33:11.106Z,14.6
2023-02-05T02:35:37.793Z,13.2
2023-02-05T02:38:04.490Z,12.2
2023-02-05T02:40:31.175Z,15.2
2023-02-05T02:42:57.847Z,14.8
2023-02-05T02:45:24.559Z,13
2023-02-05T02:47:51.226Z,11
2023-02-05T02:50:17.912Z,10.7
2023-02-05T02:52:44.594Z,10.9
2023-02-05T02:55:09.834Z,11
2023-02-05T02:57:36.506Z,11.1
2023-02-05T03:00:03.209Z,12
2023-02-05T03:02:29.884Z,13.5
2023-02-05T03:04:56.553Z,15.9
2023-02-05T03:07:23.252Z,11.9
2023-02-05T03:09:49.949Z,11.3
2023-02-05T03:12:16.619Z,13.1
2023-02-05T03:14:43.315Z,10.9
2023-02-05T03:17:09.997Z,11.4
2023-02-05T03:19:36.666Z,15.5
2023-02-05T03:22:03.371Z,11.4
2023-02-05T03:24:30.059Z,12.2
2023-02-05T03:26:55.310Z,12.3
2023-02-05T03:29:21.961Z,9.9
2023-02-05T03:31:48.630Z,12.1
2023-02-05T03:34:15.314Z,11.1
2023-02-05T03:36:41.998Z,11.1
2023-02-05T03:39:08.691Z,11.3
2023-02-05T03:41:35.387Z,10.6
2023-02-05T03:44:02.064Z,13.4
2023-02-05T03:46:28.747Z,13.7
2023-02-05T03:48:55.443Z,10.7
2023-02-05T03:51:22.122Z,11.5
2023-02-05T03:56:15.523Z,11
2023-02-05T03:58:42.181Z,11.1
2023-02-05T04:01:08.851Z,11.5
2023-02-05T04:03:35.553Z,12.3
2023-02-05T04:06:02.242Z,12.6
2023-02-05T04:08:27.440Z,9.9
2023-02-05T04:10:54.131Z,9.9
2023-02-05T04:13:20.820Z,11.5
2023-02-05T04:15:47.497Z,11.6
2023-02-05T04:18:14.181Z,12
2023-02-05T04:20:40.865Z,10.3
2023-02-05T04:23:07.549Z,10.9
2023-02-05T04:25:34.251Z,11.2
2023-02-05T04:30:27.604Z,10.9
2023-02-05T04:32:54.308Z,10.3
2023-02-05T04:35:21.002Z,12.5
2023-02-05T04:37:47.687Z,10.3
2023-02-05T04:40:12.901Z,11.5
2023-02-05T04:42:39.591Z,9.2
2023-02-05T04:45:06.274Z,9.7
2023-02-05T04:47:32.941Z,12.2
2023-02-05T04:49:59.635Z,11.2
2023-02-05T04:52:26.317Z,12.9
2023-02-05T04:54:53.092Z,13.2
2023-02-05T04:57:19.690Z,12.4
2023-02-05T04:59:46.379Z,12.1
2023-02-05T05:02:13.067Z,12.4
2023-02-05T05:04:39.765Z,11.3
2023-02-05T05:07:06.449Z,10.8
2023-02-05T05:09:33.126Z,14.4
2023-02-05T05:11:59.812Z,12
2023-02-05T05:14:26.485Z,10.6
2023-02-05T05:16:51.723Z,11.9
2023-02-05T05:19:18.389Z,14.8
2023-02-05T05:21:45.078Z,12.3
2023-02-05T05:24:11.836Z,13.3
2023-02-05T05:26:38.439Z,13.2
2023-02-05T05:29:05.126Z,10.8
2023-02-05T05:36:25.199Z,12.2
2023-02-05T05:38:51.887Z,11.6
2023-02-05T05:41:18.572Z,14.6
2023-02-05T05:43:45.235Z,12.5
2023-02-05T05:46:11.941Z,10.8
2023-02-05T05:48:38.612Z,13.4
2023-02-05T05:51:03.833Z,10.7
2023-02-05T05:53:30.536Z,12.3
2023-02-05T05:55:57.256Z,10.8
2023-02-05T06:00:50.594Z,13.5
2023-02-05T06:03:17.260Z,12.2
2023-02-05T06:08:09.196Z,10.8
2023-02-05T06:13:01.131Z,13
2023-02-05T06:15:26.473Z,10.7
2023-02-05T06:17:53.058Z,13.2
2023-02-05T06:27:39.813Z,13.7
2023-02-05T06:30:05.006Z,9.9
2023-02-05T06:32:31.713Z,11.8
2023-02-05T06:34:58.404Z,10.5
2023-02-05T06:37:25.124Z,11.7
2023-02-05T06:42:18.469Z,12
2023-02-05T06:44:45.137Z,12.1
2023-02-05T06:49:38.503Z,12.1
2023-02-05T06:52:05.200Z,14.2
2023-02-05T06:56:57.121Z,9.7
2023-02-05T06:59:22.385Z,11
2023-02-05T07:01:49.072Z,11.4
2023-02-05T07:04:14.293Z,12.4
2023-02-05T07:06:40.971Z,11.3
2023-02-05T07:09:07.655Z,12.4
2023-02-05T07:11:34.353Z,12.8
2023-02-05T07:14:01.038Z,12.4
2023-02-05T07:16:27.717Z,13.6
2023-02-05T07:18:54.409Z,11.5
2023-02-05T07:21:21.088Z,10.5
2023-02-05T07:26:14.464Z,13
2023-02-05T07:28:41.199Z,12
2023-02-05T07:31:07.835Z,12.2
2023-02-05T07:33:34.547Z,12.1
2023-02-05T07:40:53.133Z,11
2023-02-05T07:43:18.371Z,11.2
2023-02-05T07:45:45.036Z,12.8
2023-02-05T07:50:38.423Z,9.9
2023-02-05T07:55:31.784Z,13.8
2023-02-05T07:57:58.474Z,11.6
2023-02-05T08:02:51.870Z,11
2023-02-05T08:05:18.593Z,8.4
2023-02-05T08:10:11.898Z,11.8
2023-02-05T08:12:38.583Z,9.5
2023-02-05T08:15:05.290Z,10.9
2023-02-05T08:17:30.503Z,10.5
2023-02-05T08:19:57.224Z,12.2
2023-02-05T08:24:50.547Z,12.5
2023-02-05T08:27:17.217Z,11.9
2023-02-05T08:29:44.007Z,10.8
2023-02-05T08:32:10.604Z,14
2023-02-05T08:34:37.366Z,13.4
2023-02-05T08:39:30.724Z,9.2
2023-02-05T08:41:57.341Z,10
2023-02-05T08:44:24.053Z,9.7
2023-02-05T08:46:50.743Z,10.5
2023-02-05T08:49:17.405Z,11.2
2023-02-05T08:51:44.092Z,10.4
2023-02-05T08:54:10.793Z,8.7
2023-02-05T08:56:36.001Z,8.9
2023-02-05T08:59:02.681Z,7.6
2023-02-05T09:01:29.422Z,9.7
2023-02-05T09:03:56.055Z,9.8
2023-02-05T09:06:22.748Z,10
2023-02-05T09:08:49.410Z,10
2023-02-05T09:11:16.113Z,9.5
2023-02-05T09:13:42.807Z,11.3
2023-02-05T09:18:36.169Z,10.5
2023-02-05T09:21:02.851Z,9.6
2023-02-05T09:23:29.563Z,12.1
2023-02-05T09:25:56.212Z,9.6
2023-02-05T09:28:22.930Z,11.3
2023-02-05T09:30:48.122Z,11.1
2023-02-05T09:33:14.803Z,9.1
2023-02-05T09:35:41.524Z,10.4
2023-02-05T09:38:08.166Z,8.9
2023-02-05T09:40:34.853Z,9.8
2023-02-05T09:43:01.605Z,8.3
2023-02-05T09:45:28.224Z,10.6
2023-02-05T09:47:54.927Z,12.3
2023-02-05T09:50:21.740Z,12.2
2023-02-05T09:52:48.284Z,12.3
2023-02-05T09:55:14.956Z,10.3
2023-02-05T09:57:41.656Z,11.5
2023-02-05T10:00:08.342Z,13.5
2023-02-05T10:02:33.549Z,13
2023-02-05T10:04:58.816Z,15.1
2023-02-05T10:07:25.489Z,13.3
2023-02-05T10:09:52.176Z,13.7
2023-02-05T10:12:18.907Z,10.6
2023-02-05T10:14:44.085Z,11.8
2023-02-05T10:17:10.759Z,11.9
2023-02-05T10:19:37.456Z,13.5
2023-02-05T10:22:04.134Z,10.5
2023-02-05T10:24:30.829Z,13.3
2023-02-05T10:26:57.505Z,12.5
2023-02-05T10:29:24.190Z,11.8
2023-02-05T10:34:16.296Z,13.2
2023-02-05T10:36:41.500Z,12.5
2023-02-05T10:39:08.197Z,15.4
2023-02-05T10:41:34.733Z,12.3
2023-02-05T10:46:28.212Z,15.7
2023-02-05T10:48:54.876Z,18.9
2023-02-05T10:51:20.164Z,14.6
2023-02-05T10:53:46.757Z,22
2023-02-05T10:56:13.611Z,17.9
2023-02-05T10:58:38.821Z,24.5
2023-02-05T11:01:05.471Z,16.9
2023-02-05T11:03:31.998Z,17.6
2023-02-05T11:05:58.801Z,15.2
2023-02-05T11:08:25.527Z,18.6
2023-02-05T11:10:52.104Z,19.4
2023-02-05T11:13:18.858Z,18
2023-02-05T11:15:45.579Z,16.4
2023-02-05T11:18:10.664Z,15.8
2023-02-05T11:20:35.972Z,19.2
2023-02-05T11:23:02.780Z,18
2023-02-05T11:25:29.327Z,17.1
2023-02-05T11:27:55.944Z,19.1
2023-02-05T11:30:22.630Z,18.1
2023-02-05T11:32:49.516Z,18.1
2023-02-05T11:35:16.004Z,16
2023-02-05T11:37:42.682Z,16
2023-02-05T11:40:09.366Z,22.8
2023-02-05T11:42:36.058Z,22.2
2023-02-05T11:45:02.744Z,25.3
2023-02-05T11:47:29.458Z,24.8
2023-02-05T11:49:54.746Z,20.6
2023-02-05T11:52:19.903Z,25
2023-02-05T11:54:46.610Z,19.6
2023-02-05T11:57:13.278Z,19.1
2023-02-05T11:59:39.952Z,17.8
2023-02-05T12:02:06.657Z,20.7
2023-02-05T12:04:33.330Z,20
2023-02-05T12:07:00.017Z,20.8
2023-02-05T12:09:26.708Z,19.8
2023-02-05T12:11:53.405Z,22.1
2023-02-05T12:14:20.120Z,25.7
2023-02-05T12:16:46.788Z,21.8
2023-02-05T12:19:13.441Z,22.4
2023-02-05T12:21:40.124Z,19.7
2023-02-05T12:24:06.847Z,20.8
2023-02-05T12:26:32.045Z,32.4
2023-02-05T12:28:58.717Z,23.6
2023-02-05T12:31:25.413Z,22.7
2023-02-05T12:33:52.115Z,22.5
2023-02-05T12:36:18.777Z,47.2
2023-02-05T12:38:45.460Z,28.6
2023-02-05T12:41:12.151Z,34.5
2023-02-05T12:43:38.835Z,56.6
2023-02-05T12:46:05.517Z,40
2023-02-05T12:48:32.196Z,22.7
2023-02-05T12:50:58.883Z,26
2023-02-05T12:53:25.573Z,25.4
2023-02-05T12:58:18.947Z,26.6
2023-02-05T13:00:44.158Z,25.5
2023-02-05T13:03:10.845Z,24.1
2023-02-05T13:05:37.543Z,26.7
2023-02-05T13:08:04.211Z,19.2
2023-02-05T13:12:57.595Z,22.4
2023-02-05T13:15:24.289Z,25.5
2023-02-05T13:17:50.969Z,25.7
2023-02-05T13:22:44.331Z,31.9
2023-02-05T13:27:36.282Z,30.4
2023-02-05T13:30:01.521Z,25.9
2023-02-05T13:32:26.750Z,27.4
2023-02-05T13:37:20.124Z,26.8
2023-02-05T13:39:46.806Z,15.6
2023-02-05T13:42:13.485Z,16.2
2023-02-05T13:44:40.170Z,14.2
2023-02-05T13:47:06.881Z,16.1
2023-02-05T13:49:33.538Z,13.8
2023-02-05T13:52:00.224Z,14.5
2023-02-05T13:54:26.908Z,15.4
2023-02-05T13:56:53.589Z,19
2023-02-05T13:59:20.276Z,9.2
2023-02-05T14:01:46.969Z,13.3
2023-02-05T14:11:32.238Z,10.6
2023-02-05T14:13:58.932Z,13.1
2023-02-05T14:16:24.180Z,8.6
2023-02-05T14:18:49.399Z,10.4
2023-02-05T14:21:16.091Z,9.1
2023-02-05T14:23:42.784Z,9.9
2023-02-05T14:26:09.455Z,10.5
2023-02-05T14:28:36.146Z,12.7
2023-02-05T14:31:02.824Z,9.2
2023-02-05T14:33:29.509Z,10.4
2023-02-05T14:35:56.197Z,12.8
2023-02-05T14:40:49.566Z,10.5
2023-02-05T14:43:16.251Z,10
2023-02-05T14:45:42.953Z,10.8
2023-02-05T14:48:09.620Z,12.8
2023-02-05T14:50:36.312Z,9.8
2023-02-05T14:53:01.528Z,7.1
2023-02-05T14:55:28.241Z,8.9
2023-02-05T14:57:54.901Z,8.3
2023-02-05T15:02:48.260Z,9.8
2023-02-05T15:05:14.946Z,9.7
2023-02-05T15:07:41.629Z,10.2
2023-02-05T15:10:08.324Z,9.5
2023-02-05T15:12:34.998Z,11.4
2023-02-05T15:15:01.699Z,8.4
2023-02-05T15:17:28.375Z,5.9
2023-02-05T15:19:55.067Z,5.8
2023-02-05T15:22:21.744Z,7.9
2023-02-05T15:24:48.434Z,6.7
2023-02-05T15:27:13.656Z,7
2023-02-05T15:29:40.351Z,7.7
2023-02-05T15:32:05.592Z,6.8
2023-02-05T15:34:32.269Z,6.6
2023-02-05T15:36:57.494Z,7.1
2023-02-05T15:39:24.185Z,7.5
2023-02-05T15:41:50.872Z,7.5
2023-02-05T15:44:17.551Z,8.2
2023-02-05T15:46:44.290Z,10.2
2023-02-05T15:49:10.920Z,7.8
2023-02-05T15:51:37.609Z,7.6
2023-02-05T15:54:04.289Z,10.1
2023-02-05T15:56:29.522Z,9.3
2023-02-05T15:58:54.784Z,7.1
2023-02-05T16:01:20.008Z,15.6
2023-02-05T16:03:46.686Z,11.1
2023-02-05T16:06:13.375Z,12.6
2023-02-05T16:08:40.056Z,13.9
2023-02-05T16:11:06.742Z,17.7
2023-02-05T16:13:33.420Z,15.7
2023-02-05T16:16:00.117Z,16.7
2023-02-05T16:18:26.794Z,16.9
2023-02-05T16:23:20.259Z,16.8
2023-02-05T16:25:46.861Z,18.4
2023-02-05T16:28:13.536Z,18.3
2023-02-05T16:30:40.217Z,18.8
2023-02-05T16:33:06.904Z,17.3
2023-02-05T16:35:32.127Z,20.3
2023-02-05T16:37:58.798Z,19.5
2023-02-05T16:40:25.503Z,18.4
2023-02-05T16:42:52.194Z,18.7
2023-02-05T16:45:18.874Z,24.5
2023-02-05T16:47:45.550Z,21.7
2023-02-05T16:50:12.244Z,20.9
2023-02-05T16:52:38.924Z,21.4
2023-02-05T16:55:05.610Z,19.9
2023-02-05T16:57:32.297Z,22
2023-02-05T16:59:58.973Z,21
2023-02-05T17:02:25.676Z,24.6
2023-02-05T17:04:52.592Z,24
2023-02-05T17:07:17.790Z,21.3
2023-02-05T17:09:44.324Z,22.6
2023-02-05T17:12:10.944Z,20.6
2023-02-05T17:14:37.628Z,21
2023-02-05T17:17:04.318Z,22.2
2023-02-05T17:19:31.005Z,19.7
2023-02-05T17:24:24.373Z,19.1
2023-02-05T17:26:51.063Z,22.3
2023-02-05T17:29:17.746Z,22.4
2023-02-05T17:31:44.448Z,25.2
2023-02-05T17:34:11.124Z,20
2023-02-05T17:36:37.880Z,20.5
2023-02-05T17:39:04.494Z,19.4
2023-02-05T17:41:29.725Z,19.9
2023-02-05T17:43:56.402Z,20
2023-02-05T17:51:16.440Z,23.3
2023-02-05T17:53:41.713Z,19.6
2023-02-05T17:56:06.935Z,20.6
2023-02-05T17:58:33.617Z,21.2
2023-02-05T18:01:00.292Z,22.7
2023-02-05T18:05:53.662Z,24.4
2023-02-05T18:08:20.379Z,25.3
2023-02-05T18:10:47.031Z,22.1
2023-02-05T18:13:13.727Z,23.6
2023-02-05T18:15:40.402Z,22
2023-02-05T18:18:07.087Z,21.8
2023-02-05T18:20:33.784Z,24
2023-02-05T18:23:00.455Z,23.3
2023-02-05T18:25:27.154Z,24
2023-02-05T18:27:52.360Z,30.9
2023-02-05T18:30:19.050Z,28.1
2023-02-05T18:32:45.733Z,32.5
2023-02-05T18:37:39.117Z,29.4
2023-02-05T18:40:04.355Z,34.1
2023-02-05T18:42:29.588Z,35.6
2023-02-05T18:44:56.271Z,31.1
2023-02-05T18:47:22.944Z,28.5
2023-02-05T18:49:49.828Z,30.7
2023-02-05T18:52:16.318Z,30.2
2023-02-05T18:54:43.001Z,25.9
2023-02-05T18:57:09.706Z,29.9
2023-02-05T18:59:36.369Z,35.5
2023-02-05T19:02:03.062Z,30.4
2023-02-05T19:04:29.745Z,32.3
2023-02-05T19:06:55.025Z,29.2
2023-02-05T19:09:20.269Z,38.7
2023-02-05T19:14:13.580Z,34.6
2023-02-05T19:16:40.272Z,24.8
2023-02-05T19:19:06.969Z,31.6
2023-02-05T19:21:33.684Z,30.5
2023-02-05T19:24:00.357Z,25
2023-02-05T19:26:27.039Z,26
2023-02-05T19:28:53.696Z,19.1
2023-02-05T19:31:20.387Z,18.2
2023-02-05T19:33:47.062Z,17.7
2023-02-05T19:38:40.440Z,18.2
2023-02-05T19:41:05.684Z,16.1
2023-02-05T19:43:32.384Z,17.2
2023-02-05T19:45:59.064Z,15
2023-02-05T19:48:24.300Z,14.6
2023-02-05T19:50:50.969Z,18.5
2023-02-05T19:53:17.659Z,14
2023-02-05T19:55:44.345Z,13.7
2023-02-05T19:58:11.027Z,14
2023-02-05T20:03:04.394Z,13.9
2023-02-05T20:05:31.077Z,14.9
2023-02-05T20:07:57.764Z,13.3
2023-02-05T20:12:51.131Z,12.7
2023-02-05T20:15:17.826Z,12
2023-02-05T20:17:44.586Z,12.5
2023-02-05T20:20:09.727Z,12
2023-02-05T20:22:36.410Z,15.3
2023-02-05T20:27:29.777Z,13.5
2023-02-05T20:29:56.469Z,11.5
2023-02-05T20:32:23.159Z,14.3
2023-02-05T20:34:49.828Z,18.1
2023-02-05T20:37:16.516Z,17.4
2023-02-05T20:39:43.371Z,14.4
2023-02-05T20:42:09.880Z,13.5
2023-02-05T20:44:36.581Z,13.2
2023-02-05T20:47:03.251Z,13.9
2023-02-05T20:49:30.077Z,15.9
2023-02-05T20:51:55.192Z,13.7
2023-02-05T20:54:21.859Z,16.1
2023-02-05T20:56:48.610Z,14.5
2023-02-05T20:59:15.221Z,15.1
2023-02-05T21:01:41.926Z,13.3
2023-02-05T21:04:08.586Z,14.6
2023-02-05T21:06:33.893Z,13.5
2023-02-05T21:08:59.106Z,13.5
2023-02-05T21:11:26.247Z,14.8
2023-02-05T21:13:52.434Z,16.5
2023-02-05T21:16:19.149Z,17.8
2023-02-05T21:18:45.801Z,16.3
2023-02-05T21:21:12.540Z,17
2023-02-05T21:23:39.169Z,15.8
2023-02-05T21:26:05.859Z,19.9
2023-02-05T21:28:32.550Z,17.5
2023-02-05T21:30:59.236Z,17.1
2023-02-05T21:33:24.481Z,17.3
2023-02-05T21:35:49.685Z,19.1
2023-02-05T21:38:16.383Z,19.7
2023-02-05T21:40:43.106Z,19.5
2023-02-05T21:43:09.754Z,15.8
2023-02-05T21:45:36.434Z,20.9
2023-02-05T21:48:03.159Z,19.5
2023-02-05T21:50:29.808Z,18.6
2023-02-05T21:52:56.494Z,22.8
2023-02-05T21:55:23.170Z,22.8
2023-02-05T21:57:49.876Z,24.1
2023-02-05T22:00:16.563Z,23.1
2023-02-05T22:02:43.242Z,23.4
2023-02-05T22:05:09.940Z,25.1
2023-02-05T22:07:35.138Z,23.5
2023-02-05T22:12:28.520Z,26.5
2023-02-05T22:14:55.214Z,23.7
2023-02-05T22:17:21.889Z,26.2
2023-02-05T22:19:48.572Z,27.5
2023-02-05T22:22:15.268Z,28
2023-02-05T22:24:41.950Z,28.5
2023-02-05T22:27:08.637Z,31.5
2023-02-05T22:29:35.326Z,29
2023-02-05T22:32:02.016Z,27.9
2023-02-05T22:34:28.680Z,32.5
2023-02-05T22:36:55.369Z,28.6
2023-02-05T22:39:22.059Z,28.6
2023-02-05T22:41:48.880Z,30.4
2023-02-05T22:44:13.966Z,29.5
2023-02-05T22:46:40.654Z,27.9
2023-02-05T22:49:07.338Z,27.2
2023-02-05T22:51:34.022Z,30.2
2023-02-05T22:54:00.704Z,28.7
2023-02-05T22:58:54.080Z,29.7
2023-02-05T23:01:20.777Z,32.5
2023-02-05T23:03:47.447Z,27.3
2023-02-05T23:06:14.126Z,32.6
2023-02-05T23:08:40.814Z,28.3
2023-02-05T23:11:07.497Z,31.4
2023-02-05T23:13:34.180Z,30.6
2023-02-05T23:15:59.410Z,30.9
2023-02-05T23:18:26.084Z,26.7
2023-02-05T23:20:52.784Z,24.3
2023-02-05T23:23:19.452Z,26.1
2023-02-05T23:28:12.822Z,29.8
2023-02-05T23:30:39.521Z,27.7
2023-02-05T23:33:06.216Z,30.6
2023-02-05T23:35:32.890Z,31.3
2023-02-05T23:37:59.566Z,27.5
2023-02-05T23:42:52.947Z,28.7
2023-02-05T23:45:18.209Z,31.7
2023-02-05T23:47:43.417Z,31.4
2023-02-05T23:50:10.104Z,27.1
2023-02-05T23:55:03.477Z,26.2
2023-02-05T23:57:30.163Z,29.2
2023-02-05T23:59:56.850Z,31
